Time;durP1;ratioP1;P1;durP2;ratioP2;P2;SDS_P1;SDS_P2;PMS_P1;PMS_P2;Temp;Humidity;BMP_temperature;BMP_pressure;BME280_temperature;BME280_humidity;BME280_pressure;Samples;Min_cycle;Max_cycle;Signal;HPM_P1;HPM_P2
2022/06/18 00:02:23;;;;;;;8.95;7.38;;;27.80;94.40;;;;;;5105538;28;20020;-61
2022/06/18 00:04:50;;;;;;;8.95;6.47;;;27.80;94.50;;;;;;5105598;28;20027;-61
2022/06/18 00:07:20;;;;;;;9.98;6.50;;;27.80;94.40;;;;;;5105469;28;20023;-60
2022/06/18 00:09:56;;;;;;;8.70;6.40;;;27.80;94.40;;;;;;5104747;28;20369;-58
2022/06/18 00:15:24;;;;;;;11.80;5.78;;;27.70;94.50;;;;;;5105217;28;20019;-62
2022/06/18 00:17:53;;;;;;;10.60;4.93;;;27.80;94.80;;;;;;5105271;28;20020;-60
2022/06/18 00:20:22;;;;;;;10.63;4.65;;;27.70;94.50;;;;;;5105745;28;20024;-65
2022/06/18 00:22:53;;;;;;;8.20;4.35;;;27.70;94.50;;;;;;5105327;28;20020;-59
2022/06/18 00:25:42;;;;;;;6.45;4.30;;;27.70;94.60;;;;;;5104509;28;20027;-60
2022/06/18 00:28:22;;;;;;;8.35;4.55;;;27.70;94.60;;;;;;5104732;28;20057;-60
2022/06/18 00:30:50;;;;;;;7.65;4.45;;;27.70;94.60;;;;;;5104782;28;20051;-61
2022/06/18 00:33:21;;;;;;;7.43;4.20;;;27.70;94.70;;;;;;5105015;28;20038;-61
2022/06/18 00:35:50;;;;;;;7.13;3.85;;;27.70;94.70;;;;;;5105345;28;20020;-62
2022/06/18 00:38:28;;;;;;;8.38;3.88;;;27.60;94.60;;;;;;5105861;28;20028;-61
2022/06/18 00:40:55;;;;;;;6.25;4.05;;;27.60;94.60;;;;;;5105067;28;20039;-61
2022/06/18 00:43:27;;;;;;;5.63;3.33;;;27.60;94.50;;;;;;5104943;28;20084;-61
2022/06/18 00:46:02;;;;;;;5.80;3.08;;;27.60;94.60;;;;;;5104637;28;20082;-61
2022/06/18 00:48:40;;;;;;;8.50;3.05;;;27.60;94.50;;;;;;5104899;28;20032;-57
2022/06/18 00:51:34;;;;;;;5.45;2.72;;;27.60;94.60;;;;;;5104611;28;20027;-59
2022/06/18 00:54:17;;;;;;;6.70;2.67;;;27.60;94.70;;;;;;5094149;28;20275;-62
2022/06/18 00:57:03;;;;;;;5.78;2.85;;;27.60;94.60;;;;;;5104236;28;20016;-61
2022/06/18 00:59:55;;;;;;;6.20;2.50;;;27.60;94.60;;;;;;5104504;28;20028;-63
2022/06/18 01:02:27;;;;;;;4.45;2.58;;;27.60;94.70;;;;;;5104017;28;20331;-59
2022/06/18 01:04:56;;;;;;;4.93;2.33;;;27.60;94.70;;;;;;5104010;28;20035;-63
2022/06/18 01:07:30;;;;;;;3.85;2.50;;;27.50;94.70;;;;;;5104185;28;20315;-60
2022/06/18 01:09:59;;;;;;;5.32;2.58;;;27.50;94.70;;;;;;5103966;28;20371;-63
2022/06/18 01:12:26;;;;;;;7.53;3.13;;;27.50;94.80;;;;;;5103848;28;20023;-63
2022/06/18 01:15:01;;;;;;;8.27;2.75;;;27.50;94.80;;;;;;5104069;28;20243;-60
2022/06/18 01:17:30;;;;;;;7.35;3.08;;;27.50;94.70;;;;;;5104395;28;20088;-59
2022/06/18 01:19:59;;;;;;;7.25;2.80;;;27.50;94.80;;;;;;5107788;28;20023;-62
2022/06/18 01:22:52;;;;;;;3.45;2.63;;;27.50;94.70;;;;;;5107833;28;20243;-64
2022/06/18 01:25:20;;;;;;;4.90;2.70;;;27.50;94.60;;;;;;5107496;28;20016;-60
2022/06/18 01:27:47;;;;;;;7.65;3.42;;;27.50;94.70;;;;;;5108021;28;20032;-58
2022/06/18 01:30:17;;;;;;;6.78;3.10;;;27.50;94.80;;;;;;5107027;28;20031;-57
2022/06/18 01:32:45;;;;;;;10.07;3.13;;;27.50;94.80;;;;;;5107897;28;20081;-59
2022/06/18 01:35:13;;;;;;;8.18;3.15;;;27.50;94.80;;;;;;5108083;28;20012;-61
2022/06/18 01:37:40;;;;;;;7.35;3.42;;;27.50;94.70;;;;;;5107596;28;20024;-65
2022/06/18 01:40:12;;;;;;;7.47;3.05;;;27.50;94.70;;;;;;5107610;28;20050;-67
2022/06/18 01:42:46;;;;;;;4.97;2.47;;;27.50;94.70;;;;;;5107387;28;20028;-64
2022/06/18 01:45:17;;;;;;;9.35;2.30;;;27.50;94.70;;;;;;5107256;28;20024;-62
2022/06/18 01:48:04;;;;;;;6.53;2.35;;;27.50;94.70;;;;;;5107599;28;20035;-64
2022/06/18 01:51:00;;;;;;;9.07;2.30;;;27.40;94.70;;;;;;5104658;28;20028;-57
2022/06/18 01:53:35;;;;;;;6.65;2.50;;;27.40;94.70;;;;;;5096708;28;20028;-57
2022/06/18 01:56:13;;;;;;;8.13;2.25;;;27.40;94.70;;;;;;5107218;28;20200;-58
2022/06/18 01:58:42;;;;;;;5.03;2.10;;;27.50;94.70;;;;;;5107378;28;20024;-56
2022/06/18 02:01:16;;;;;;;12.77;2.42;;;27.40;94.70;;;;;;5095262;28;20096;-57
2022/06/18 02:03:42;;;;;;;10.30;2.55;;;27.40;94.60;;;;;;5106588;28;20089;-55
2022/06/18 02:06:10;;;;;;;7.88;2.15;;;27.40;94.60;;;;;;5106638;28;20238;-58
2022/06/18 02:08:37;;;;;;;13.52;2.92;;;27.40;94.60;;;;;;5106437;28;20024;-55
2022/06/18 02:11:07;;;;;;;9.10;2.53;;;27.40;94.50;;;;;;5106233;28;20070;-55
2022/06/18 02:13:55;;;;;;;9.25;2.97;;;27.40;94.40;;;;;;5092671;28;20216;-58
2022/06/18 02:16:29;;;;;;;18.35;3.00;;;27.40;94.50;;;;;;5087897;28;20079;-58
2022/06/18 02:18:59;;;;;;;14.20;2.63;;;27.30;94.50;;;;;;5086807;28;20293;-56
2022/06/18 02:21:27;;;;;;;5.05;2.30;;;27.30;94.60;;;;;;5088943;28;20024;-56
2022/06/18 02:23:55;;;;;;;7.43;2.10;;;27.30;94.40;;;;;;5101765;28;20296;-57
2022/06/18 02:26:25;;;;;;;9.15;2.20;;;27.30;94.60;;;;;;5088203;28;20331;-59
2022/06/18 02:28:55;;;;;;;10.70;2.58;;;27.30;94.70;;;;;;5086433;28;20168;-58
2022/06/18 02:31:31;;;;;;;7.32;2.08;;;27.30;94.70;;;;;;5097466;28;20027;-56
2022/06/18 02:34:10;;;;;;;9.30;2.50;;;27.30;94.70;;;;;;5101717;28;20220;-58
2022/06/18 02:36:43;;;;;;;4.60;2.20;;;27.20;94.60;;;;;;5106053;28;20065;-57
2022/06/18 02:39:13;;;;;;;3.80;1.90;;;27.20;94.70;;;;;;5100272;28;20028;-55
2022/06/18 02:41:42;;;;;;;8.70;1.75;;;27.20;94.90;;;;;;5096970;28;20044;-56
2022/06/18 02:44:13;;;;;;;8.07;2.33;;;27.20;94.60;;;;;;5097690;28;20028;-55
2022/06/18 02:46:40;;;;;;;5.20;1.65;;;27.20;94.60;;;;;;5100864;28;20032;-57
2022/06/18 02:49:09;;;;;;;6.80;2.00;;;27.20;94.60;;;;;;5102022;28;20320;-57
2022/06/18 02:51:36;;;;;;;6.70;1.85;;;27.20;94.50;;;;;;5097918;28;20031;-56
2022/06/18 02:54:03;;;;;;;7.55;1.75;;;27.20;94.50;;;;;;5106202;28;20034;-57
2022/06/18 02:56:30;;;;;;;9.13;1.60;;;27.10;94.50;;;;;;5105649;28;20027;-60
2022/06/18 02:58:57;;;;;;;6.65;1.60;;;27.10;94.60;;;;;;5103625;28;20035;-60
2022/06/18 03:01:25;;;;;;;4.97;1.63;;;27.10;94.60;;;;;;5096488;28;20048;-56
2022/06/18 03:03:57;;;;;;;7.93;1.50;;;27.10;94.70;;;;;;5091494;28;20066;-56
2022/06/18 03:06:27;;;;;;;6.72;1.92;;;27.10;94.70;;;;;;5094073;28;20008;-57
2022/06/18 03:08:55;;;;;;;8.23;1.58;;;27.10;94.60;;;;;;5097938;28;20031;-57
2022/06/18 03:14:09;;;;;;;10.35;2.00;;;27.10;94.70;;;;;;5105771;28;20024;-55
2022/06/18 03:16:36;;;;;;;5.63;1.90;;;27.10;94.70;;;;;;5102523;28;20027;-55
2022/06/18 03:19:04;;;;;;;7.53;1.77;;;27.10;94.70;;;;;;5105193;28;20031;-54
2022/06/18 03:21:48;;;;;;;6.40;1.90;;;27.10;94.70;;;;;;5103052;28;20081;-55
2022/06/18 03:24:14;;;;;;;5.68;1.95;;;27.10;94.70;;;;;;5105693;28;20032;-61
2022/06/18 03:26:41;;;;;;;8.52;2.25;;;27.10;94.80;;;;;;5105229;28;20031;-57
2022/06/18 03:29:09;;;;;;;9.98;2.17;;;27.00;94.80;;;;;;5105548;28;20020;-57
2022/06/18 03:31:36;;;;;;;7.10;2.53;;;27.10;94.90;;;;;;5103459;28;20032;-56
2022/06/18 03:34:03;;;;;;;6.07;2.55;;;27.00;94.90;;;;;;5103977;28;20028;-56
2022/06/18 03:36:30;;;;;;;5.80;2.50;;;27.00;94.90;;;;;;5105130;28;20019;-56
2022/06/18 03:38:56;;;;;;;7.18;3.13;;;27.10;95.00;;;;;;5105325;28;20031;-55
2022/06/18 03:41:24;;;;;;;5.55;2.28;;;27.00;94.90;;;;;;5104557;28;20031;-61
2022/06/18 03:43:52;;;;;;;7.53;2.35;;;27.00;95.00;;;;;;5105085;28;20095;-56
2022/06/18 03:46:19;;;;;;;9.00;2.53;;;27.00;95.00;;;;;;5104813;28;20027;-56
2022/06/18 03:48:55;;;;;;;7.95;2.20;;;27.00;95.00;;;;;;5103573;28;20031;-54
2022/06/18 03:51:23;;;;;;;7.93;2.30;;;27.00;95.00;;;;;;5104718;28;20027;-56
2022/06/18 03:53:50;;;;;;;9.02;2.25;;;27.00;95.00;;;;;;5104875;28;20052;-63
2022/06/18 03:56:20;;;;;;;7.40;1.87;;;27.00;95.00;;;;;;5104671;28;20031;-56
2022/06/18 03:58:46;;;;;;;5.38;1.80;;;27.00;95.00;;;;;;5095718;28;20208;-53
2022/06/18 04:01:14;;;;;;;;;;;27.00;95.00;;;;;;5089759;28;20020;-55
2022/06/18 04:03:40;;;;;;;;;;;27.00;95.00;;;;;;5082672;28;20140;-54
2022/06/18 04:06:07;;;;;;;;;;;27.00;95.00;;;;;;5084586;28;19900;-56
2022/06/18 04:08:33;;;;;;;;;;;26.90;95.00;;;;;;5084071;28;19919;-55
2022/06/18 04:10:59;;;;;;;;;;;26.90;94.90;;;;;;5083768;28;19942;-56
2022/06/18 04:13:28;;;;;;;;;;;26.90;94.80;;;;;;5103129;28;24058;-54
2022/06/18 04:15:54;;;;;;;;;;;27.00;94.80;;;;;;5103363;28;19900;-54
2022/06/18 04:18:21;;;;;;;;;;;27.00;94.80;;;;;;5104603;28;19915;-55
2022/06/18 04:20:47;;;;;;;;;;;26.90;94.80;;;;;;5103956;28;19900;-54
2022/06/18 04:23:15;;;;;;;;;;;26.90;94.90;;;;;;5103964;28;19915;-57
2022/06/18 04:25:42;;;;;;;;;;;26.90;94.90;;;;;;5103967;28;20075;-56
2022/06/18 04:28:13;;;;;;;;;;;26.90;95.00;;;;;;5104604;28;19916;-56
2022/06/18 04:30:39;;;;;;;;;;;26.90;95.00;;;;;;5104404;28;24071;-54
2022/06/18 04:33:06;;;;;;;;;;;26.90;95.00;;;;;;5104548;28;19994;-57
2022/06/18 04:35:32;;;;;;;;;;;26.90;95.20;;;;;;5104566;28;19907;-56
2022/06/18 04:37:58;;;;;;;;;;;26.90;95.00;;;;;;5104454;28;19915;-55
2022/06/18 04:40:31;;;;;;;;;;;26.90;95.00;;;;;;5104213;28;20022;-58
2022/06/18 04:43:01;;;;;;;;;;;26.90;95.00;;;;;;5104280;28;20236;-58
2022/06/18 04:45:27;;;;;;;;;;;26.90;95.30;;;;;;5104565;28;20187;-60
2022/06/18 04:47:54;;;;;;;;;;;26.90;95.10;;;;;;5104612;28;19915;-56
2022/06/18 04:50:21;;;;;;;;;;;26.90;95.10;;;;;;5105026;28;20168;-56
2022/06/18 04:52:48;;;;;;;;;;;26.90;95.20;;;;;;5105274;28;19957;-57
2022/06/18 04:55:14;;;;;;;;;;;26.80;95.10;;;;;;5106780;28;19935;-55
2022/06/18 04:57:40;;;;;;;;;;;26.90;95.20;;;;;;5108957;28;19915;-58
2022/06/18 05:00:07;;;;;;;;;;;26.80;95.20;;;;;;5108069;28;19988;-60
2022/06/18 05:02:33;;;;;;;;;;;26.80;95.20;;;;;;5107796;28;19912;-57
2022/06/18 05:05:00;;;;;;;;;;;26.80;95.20;;;;;;5108762;28;19915;-54
2022/06/18 05:07:26;;;;;;;;;;;26.80;95.20;;;;;;5107522;28;19904;-54
2022/06/18 05:09:52;;;;;;;;;;;26.80;95.30;;;;;;5107482;28;19907;-55
2022/06/18 05:12:18;;;;;;;;;;;26.80;95.40;;;;;;5107173;28;19981;-54
2022/06/18 05:14:44;;;;;;;;;;;26.80;95.40;;;;;;5107509;28;19907;-54
2022/06/18 05:17:22;;;;;;;;;;;26.80;95.40;;;;;;5107282;28;19900;-55
2022/06/18 05:19:48;;;;;;;;;;;26.90;95.40;;;;;;5107177;28;19908;-54
2022/06/18 05:22:23;;;;;;;;;;;26.90;95.50;;;;;;5107397;28;20128;-57
2022/06/18 05:24:49;;;;;;;;;;;26.90;95.50;;;;;;5107086;28;19900;-56
2022/06/18 05:27:21;;;;;;;;;;;26.80;95.50;;;;;;5107143;28;24072;-57
2022/06/18 05:29:47;;;;;;;;;;;26.80;95.50;;;;;;5107345;28;19932;-57
2022/06/18 05:32:14;;;;;;;;;;;26.80;95.60;;;;;;5106549;28;19912;-56
2022/06/18 05:34:40;;;;;;;;;;;26.80;95.60;;;;;;5107207;28;19912;-56
2022/06/18 05:37:32;;;;;;;;;;;26.80;95.70;;;;;;5105248;28;19900;-60
2022/06/18 05:39:58;;;;;;;;;;;26.80;95.70;;;;;;5104765;28;19908;-59
2022/06/18 05:42:24;;;;;;;;;;;26.80;95.80;;;;;;5107130;28;19900;-59
2022/06/18 05:44:51;;;;;;;;;;;26.80;95.80;;;;;;5106499;28;19904;-55
2022/06/18 05:47:17;;;;;;;;;;;26.80;95.70;;;;;;5106392;28;24088;-57
2022/06/18 05:49:43;;;;;;;;;;;26.80;95.80;;;;;;5106798;28;19940;-55
2022/06/18 05:52:09;;;;;;;;;;;26.80;95.80;;;;;;5106208;28;24073;-56
2022/06/18 05:54:35;;;;;;;;;;;26.80;95.80;;;;;;5106704;28;19988;-57
2022/06/18 05:57:02;;;;;;;;;;;26.80;95.90;;;;;;5106115;28;19981;-56
2022/06/18 05:59:28;;;;;;;;;;;26.80;95.90;;;;;;5106809;28;19911;-56
2022/06/18 06:01:56;;;;;;;;;;;26.80;95.80;;;;;;5106469;28;19904;-52
2022/06/18 06:04:22;;;;;;;;;;;26.80;95.80;;;;;;5106244;28;19910;-55
2022/06/18 06:06:49;;;;;;;;;;;26.80;95.80;;;;;;5106167;28;19953;-55
2022/06/18 06:11:28;;;;;;;;;;;26.80;95.90;;;;;;5106945;28;19904;-57
2022/06/18 06:12:04;;;;;;;;;;;26.80;95.90;;;;;;5106049;28;19908;-56
2022/06/18 06:14:31;;;;;;;;;;;26.80;95.90;;;;;;5107369;28;19908;-56
2022/06/18 06:16:57;;;;;;;;;;;26.80;95.90;;;;;;5106955;28;20156;-54
2022/06/18 06:19:24;;;;;;;;;;;26.80;96.00;;;;;;5107771;28;19904;-59
2022/06/18 06:21:50;;;;;;;;;;;26.70;96.00;;;;;;5105624;28;19966;-59
2022/06/18 06:24:16;;;;;;;;;;;26.70;96.00;;;;;;5106705;28;19971;-54
2022/06/18 06:26:42;;;;;;;;;;;26.70;96.10;;;;;;5106728;28;19904;-54
2022/06/18 06:29:09;;;;;;;;;;;26.70;96.00;;;;;;5106954;28;19997;-56
2022/06/18 06:31:35;;;;;;;;;;;26.70;96.00;;;;;;5106361;28;19918;-55
2022/06/18 06:34:03;;;;;;;;;;;26.80;95.90;;;;;;5106890;28;19908;-54
2022/06/18 06:36:29;;;;;;;;;;;26.80;95.90;;;;;;5106444;28;19907;-55
2022/06/18 06:38:56;;;;;;;;;;;26.70;96.00;;;;;;5106921;28;19908;-57
2022/06/18 06:41:24;;;;;;;;;;;26.70;96.00;;;;;;5106474;28;20099;-55
2022/06/18 06:43:50;;;;;;;;;;;26.70;96.00;;;;;;5106698;28;19975;-59
2022/06/18 06:46:17;;;;;;;;;;;26.60;96.00;;;;;;5106365;28;19904;-56
2022/06/18 06:48:43;;;;;;;;;;;26.60;96.00;;;;;;5106556;28;19908;-57
2022/06/18 06:51:14;;;;;;;;;;;26.70;96.00;;;;;;5106096;28;19981;-55
2022/06/18 06:53:40;;;;;;;;;;;26.60;96.00;;;;;;5106401;28;19907;-54
2022/06/18 06:58:53;;;;;;;;;;;26.60;96.00;;;;;;5106432;28;19915;-55
2022/06/18 07:01:19;;;;;;;;;;;26.60;96.00;;;;;;5104413;28;19908;-56
2022/06/18 07:03:45;;;;;;;;;;;26.60;96.00;;;;;;5106217;28;20176;-55
2022/06/18 07:06:13;;;;;;;;;;;26.60;96.00;;;;;;5105959;28;19900;-58
2022/06/18 07:08:40;;;;;;;;;;;26.60;95.90;;;;;;5105758;28;20215;-54
2022/06/18 07:11:06;;;;;;;;;;;26.60;95.90;;;;;;5105719;28;19911;-60
2022/06/18 07:13:32;;;;;;;;;;;26.60;95.90;;;;;;5105955;28;19919;-55
2022/06/18 07:15:59;;;;;;;;;;;26.60;95.90;;;;;;5105334;28;19904;-56
2022/06/18 07:18:31;;;;;;;;;;;26.60;96.00;;;;;;5105807;28;19967;-56
2022/06/18 07:20:57;;;;;;;;;;;26.60;96.10;;;;;;5105569;28;19904;-55
2022/06/18 07:23:23;;;;;;;;;;;26.60;96.20;;;;;;5105978;28;20192;-56
2022/06/18 07:25:50;;;;;;;;;;;26.60;96.20;;;;;;5105504;28;20184;-54
2022/06/18 07:28:16;;;;;;;;;;;26.60;96.20;;;;;;5105847;28;19904;-56
2022/06/18 07:30:42;;;;;;;;;;;26.60;96.20;;;;;;5105406;28;19908;-59
2022/06/18 07:33:13;;;;;;;;;;;26.60;96.10;;;;;;5105441;28;19908;-55
2022/06/18 07:35:39;;;;;;;;;;;26.60;96.20;;;;;;5105457;28;20196;-56
2022/06/18 07:38:06;;;;;;;;;;;26.50;96.10;;;;;;5105501;28;19912;-54
2022/06/18 07:40:36;;;;;;;;;;;26.50;96.10;;;;;;5105149;28;19900;-54
2022/06/18 07:43:03;;;;;;;;;;;26.50;96.00;;;;;;5105354;28;19915;-55
2022/06/18 07:45:29;;;;;;;;;;;26.50;96.00;;;;;;5105322;28;20171;-54
2022/06/18 07:47:55;;;;;;;;;;;26.40;96.00;;;;;;5105150;28;19940;-58
2022/06/18 07:50:23;;;;;;;;;;;26.50;96.00;;;;;;5105257;28;19907;-56
2022/06/18 07:52:49;;;;;;;;;;;26.50;96.10;;;;;;5105054;28;20018;-57
2022/06/18 07:55:18;;;;;;;;;;;26.40;96.10;;;;;;5105003;28;20115;-56
2022/06/18 07:57:44;;;;;;;;;;;26.40;96.10;;;;;;5105096;28;19957;-55
2022/06/18 08:00:11;;;;;;;;;;;26.40;96.10;;;;;;5105017;28;19900;-56
2022/06/18 08:02:39;;;;;;;;;;;26.40;96.10;;;;;;5104809;28;19915;-56
2022/06/18 08:05:06;;;;;;;;;;;26.40;96.10;;;;;;5104874;28;19962;-57
2022/06/18 08:07:33;;;;;;;;;;;26.40;96.00;;;;;;5104908;28;19920;-56
2022/06/18 08:09:59;;;;;;;;;;;26.40;96.00;;;;;;5104736;28;19900;-56
2022/06/18 08:12:25;;;;;;;;;;;26.50;96.00;;;;;;5104775;28;19926;-56
2022/06/18 08:14:51;;;;;;;;;;;26.40;96.00;;;;;;5104743;28;19938;-58
2022/06/18 08:17:17;;;;;;;;;;;26.50;96.00;;;;;;5104570;28;19973;-54
2022/06/18 08:19:43;;;;;;;;;;;26.40;96.00;;;;;;5104761;28;20183;-61
2022/06/18 08:22:10;;;;;;;;;;;26.40;95.90;;;;;;5104756;28;19942;-55
2022/06/18 08:24:36;;;;;;;;;;;26.50;95.90;;;;;;5105047;28;19915;-55
2022/06/18 08:27:02;;;;;;;;;;;26.50;95.90;;;;;;5104692;28;19915;-59
2022/06/18 08:29:30;;;;;;;;;;;26.40;95.90;;;;;;5105060;28;19912;-57
2022/06/18 08:31:56;;;;;;;;;;;26.40;95.90;;;;;;5104218;28;19919;-56
2022/06/18 08:34:23;;;;;;;;;;;26.40;95.90;;;;;;5104872;28;19939;-55
2022/06/18 08:36:49;;;;;;;;;;;26.40;96.00;;;;;;5104405;28;19904;-54
2022/06/18 08:39:15;;;;;;;;;;;26.40;96.00;;;;;;5104855;28;19911;-54
2022/06/18 08:41:44;;;;;;;;;;;26.30;96.00;;;;;;5104276;28;19904;-55
2022/06/18 08:44:29;;;;;;;;;;;26.40;96.00;;;;;;5104963;28;20126;-55
2022/06/18 08:46:58;;;;;;;;;;;26.30;96.00;;;;;;5104311;28;19939;-57
2022/06/18 08:49:27;;;;;;;;;;;26.30;96.00;;;;;;5104849;28;19904;-57
2022/06/18 08:51:53;;;;;;;;;;;26.30;96.00;;;;;;5104187;28;20223;-58
2022/06/18 08:54:27;;;;;;;;;;;26.30;95.90;;;;;;5104122;28;19904;-56
2022/06/18 08:57:01;;;;;;;;;;;26.30;95.90;;;;;;5104560;28;19908;-57
2022/06/18 08:59:42;;;;;;;;;;;26.30;95.90;;;;;;5104656;28;19911;-54
2022/06/18 09:02:11;;;;;;;;;;;26.30;95.80;;;;;;5104126;28;19911;-54
2022/06/18 09:04:55;;;;;;;;;;;26.30;95.80;;;;;;5104029;28;19984;-54
2022/06/18 09:07:40;;;;;;;;;;;26.30;95.90;;;;;;5104153;28;19900;-53
2022/06/18 09:10:12;;;;;;;;;;;26.20;95.70;;;;;;5104235;28;20095;-55
2022/06/18 09:12:58;;;;;;;;;;;26.30;95.80;;;;;;5104081;28;20144;-56
2022/06/18 09:15:29;;;;;;;;;;;26.30;95.70;;;;;;5103706;28;20214;-57
2022/06/18 09:17:59;;;;;;;;;;;26.30;95.70;;;;;;5104192;28;19904;-54
2022/06/18 09:20:32;;;;;;;;;;;26.20;95.70;;;;;;5103895;28;20208;-54
2022/06/18 09:23:05;;;;;;;;;;;26.20;95.60;;;;;;5104191;28;19946;-58
2022/06/18 09:25:34;;;;;;;;;;;26.20;95.90;;;;;;5104170;28;19949;-55
2022/06/18 09:28:05;;;;;;;;;;;26.20;95.70;;;;;;5104096;28;20195;-56
2022/06/18 09:30:45;;;;;;;;;;;26.20;95.70;;;;;;5103926;28;20188;-57
2022/06/18 09:33:22;;;;;;;;;;;26.20;95.70;;;;;;5104087;28;19911;-57
2022/06/18 09:35:50;;;;;;;;;;;26.20;95.70;;;;;;5101635;28;19900;-58
2022/06/18 09:38:42;;;;;;;;;;;26.20;95.70;;;;;;5103902;28;19988;-56
2022/06/18 09:41:14;;;;;;;;;;;26.20;95.70;;;;;;5105770;28;19922;-56
2022/06/18 09:43:52;;;;;;;;;;;26.20;95.80;;;;;;5107662;28;20184;-56
2022/06/18 09:46:21;;;;;;;;;;;26.20;95.90;;;;;;5107278;28;20081;-55
2022/06/18 09:48:47;;;;;;;;;;;26.20;95.90;;;;;;5107601;28;20282;-55
2022/06/18 09:51:33;;;;;;;;;;;26.20;95.90;;;;;;5106481;28;19903;-53
2022/06/18 09:54:03;;;;;;;;;;;26.10;96.00;;;;;;5101913;28;19975;-48
2022/06/18 09:56:32;;;;;;;;;;;26.10;96.10;;;;;;5087288;28;20116;-52
2022/06/18 09:59:01;;;;;;;;;;;26.00;96.20;;;;;;5087250;28;19931;-56
2022/06/18 10:01:37;;;;;;;;;;;26.00;96.50;;;;;;5087009;28;19908;-58
2022/06/18 10:06:58;;;;;;;;;;;26.00;96.40;;;;;;5086771;28;19911;-56
2022/06/18 10:09:30;;;;;;;;;;;26.00;96.40;;;;;;5087467;28;19962;-55
2022/06/18 10:11:56;;;;;;;;;;;26.00;96.30;;;;;;5086685;28;19915;-53
2022/06/18 10:14:23;;;;;;;;;;;26.10;96.30;;;;;;5087288;28;19904;-58
2022/06/18 10:17:07;;;;;;;;;;;26.10;96.30;;;;;;5084982;28;19974;-58
2022/06/18 10:19:34;;;;;;;;;;;26.10;96.30;;;;;;5084902;28;19904;-58
2022/06/18 10:22:12;;;;;;;;;;;26.10;96.20;;;;;;5085175;28;19975;-55
2022/06/18 10:25:01;;;;;;;;;;;26.10;96.20;;;;;;5084974;28;19909;-55
2022/06/18 10:27:36;;;;;;;;;;;26.10;96.10;;;;;;5082022;28;20205;-55
2022/06/18 10:30:08;;;;;;;;;;;26.10;96.20;;;;;;5085381;28;19939;-60
2022/06/18 10:32:37;;;;;;;;;;;26.10;96.20;;;;;;5086126;28;20247;-55
2022/06/18 10:35:09;;;;;;;;;;;26.10;96.20;;;;;;5086590;28;19900;-54
2022/06/18 10:37:38;;;;;;;;;;;26.10;96.20;;;;;;5086481;28;19955;-56
2022/06/18 10:40:22;;;;;;;;;;;26.00;96.20;;;;;;5086512;28;19900;-53
2022/06/18 10:43:07;;;;;;;;;;;26.00;96.20;;;;;;5086283;28;20269;-56
2022/06/18 11:01:02;;;;;;;;;;;26.10;95.90;;;;;;5100034;27;19988;-57
2022/06/18 11:03:32;;;;;;;;;;;26.20;95.60;;;;;;5081461;28;19913;-55
2022/06/18 11:05:58;;;;;;;;;;;26.20;95.70;;;;;;5081628;28;19905;-56
2022/06/18 11:08:26;;;;;;;;;;;26.10;95.80;;;;;;5081261;28;20212;-57
2022/06/18 11:11:03;;;;;;;;;;;26.10;95.90;;;;;;5081634;28;19909;-59
2022/06/18 11:13:35;;;;;;;;;;;26.10;96.00;;;;;;5081276;28;19963;-60
2022/06/18 11:16:13;;;;;;;;;;;26.10;96.00;;;;;;5081108;28;19913;-59
2022/06/18 11:18:43;;;;;;;;;;;26.10;96.00;;;;;;5081426;28;20208;-60
2022/06/18 11:21:12;;;;;;;;;;;26.10;96.10;;;;;;5080996;28;20192;-60
2022/06/18 11:23:44;;;;;;;;;;;26.10;96.10;;;;;;5081221;28;19936;-59
2022/06/18 11:26:16;;;;;;;;;;;26.10;96.10;;;;;;5081046;28;19909;-59
2022/06/18 11:28:46;;;;;;;;;;;26.10;96.10;;;;;;5081043;28;20330;-58
2022/06/18 11:31:21;;;;;;;;;;;26.10;96.20;;;;;;5080952;28;20100;-59
2022/06/18 11:33:55;;;;;;;;;;;26.10;96.20;;;;;;5080842;28;19936;-59
2022/06/18 11:36:31;;;;;;;;;;;26.10;96.30;;;;;;5080824;28;19915;-56
2022/06/18 11:38:58;;;;;;;;;;;26.10;96.40;;;;;;5080767;28;19955;-54
2022/06/18 11:41:30;;;;;;;;;;;26.10;96.70;;;;;;5080657;28;19944;-53
2022/06/18 11:44:02;;;;;;;;;;;26.10;96.50;;;;;;5096476;28;20096;-56
2022/06/18 11:46:32;;;;;;;;;;;26.10;96.50;;;;;;5080508;28;20019;-53
2022/06/18 11:49:15;;;;;;;;;;;26.10;96.40;;;;;;5080660;28;19955;-52
2022/06/18 11:51:45;;;;;;;;;;;26.10;96.40;;;;;;5060468;28;19951;-52
2022/06/18 11:54:43;;;;;;;;;;;26.10;96.40;;;;;;5060141;28;19923;-56
2022/06/18 11:57:18;;;;;;;;;;;26.10;96.40;;;;;;5048695;28;19972;-52
2022/06/18 11:59:52;;;;;;;;;;;26.10;96.40;;;;;;5059313;28;20227;-55
2022/06/18 12:02:23;;;;;;;;;;;26.10;96.40;;;;;;5046784;28;19909;-55
2022/06/18 12:05:18;;;;;;;;;;;26.10;96.40;;;;;;5047475;28;20227;-51
2022/06/18 12:07:51;;;;;;;;;;;26.10;96.40;;;;;;5028069;28;19906;-56
2022/06/18 12:10:18;;;;;;;;;;;26.20;96.40;;;;;;5047283;28;19921;-56
2022/06/18 12:13:03;;;;;;;;;;;26.20;96.50;;;;;;5046739;28;19906;-51
2022/06/18 12:15:29;;;;;;;;;;;26.20;96.50;;;;;;5046867;28;19984;-51
2022/06/18 12:18:11;;;;;;;;;;;26.20;96.50;;;;;;5046772;28;19955;-51
2022/06/18 12:20:37;;;;;;;;;;;26.20;96.60;;;;;;5026974;28;19951;-55
2022/06/18 12:23:06;;;;;;;;;;;26.20;96.60;;;;;;5046204;28;19972;-54
2022/06/18 12:25:41;;;;;;;;;;;26.20;96.60;;;;;;5046809;28;19912;-58
2022/06/18 12:28:07;;;;;;;;;;;26.20;96.70;;;;;;5046480;28;19912;-60
2022/06/18 12:30:42;;;;;;;;;;;26.20;96.70;;;;;;5046491;28;19912;-52
2022/06/18 12:33:18;;;;;;;;;;;26.20;96.70;;;;;;5045437;28;20243;-54
2022/06/18 12:35:47;;;;;;;;;;;26.20;96.70;;;;;;5046453;28;19905;-62
2022/06/18 12:38:22;;;;;;;;;;;26.20;96.70;;;;;;5045283;28;19905;-56
2022/06/18 12:40:58;;;;;;;;;;;26.20;96.70;;;;;;5046539;28;20020;-56
2022/06/18 12:43:34;;;;;;;;;;;26.20;96.70;;;;;;5046463;28;19920;-51
2022/06/18 12:46:05;;;;;;;;;;;26.20;96.70;;;;;;5046445;28;19905;-55
2022/06/18 12:48:41;;;;;;;;;;;26.20;96.70;;;;;;5046116;28;19917;-52
2022/06/18 12:51:20;;;;;;;;;;;26.20;96.70;;;;;;5046405;28;19940;-55
2022/06/18 12:53:46;;;;;;;;;;;26.20;96.60;;;;;;5045151;28;19914;-52
2022/06/18 12:56:28;;;;;;;;;;;26.20;96.60;;;;;;5046149;28;19905;-53
2022/06/18 12:59:00;;;;;;;;;;;26.20;96.70;;;;;;5045855;28;20219;-54
2022/06/18 13:01:31;;;;;;;;;;;26.20;96.60;;;;;;5045988;28;19906;-58
2022/06/18 13:04:13;;;;;;;;;;;26.20;96.60;;;;;;5046130;28;19995;-57
2022/06/18 13:06:58;;;;;;;;;;;26.20;96.60;;;;;;5046002;28;19928;-54
2022/06/18 13:09:53;;;;;;;;;;;26.20;96.70;;;;;;5046134;28;19924;-57
2022/06/18 13:12:39;;;;;;;;;;;26.20;96.60;;;;;;5040365;28;19913;-54
2022/06/18 13:15:05;;;;;;;;;;;26.20;96.60;;;;;;5044850;28;19912;-52
2022/06/18 13:17:38;;;;;;;;;;;26.20;96.60;;;;;;5045933;28;19906;-57
2022/06/18 13:20:09;;;;;;;;;;;26.20;96.70;;;;;;5045988;28;19956;-53
2022/06/18 13:22:35;;;;;;;;;;;26.20;96.70;;;;;;5045919;28;19905;-56
2022/06/18 13:30:57;;;;;;;;;;;26.20;96.70;;;;;;5045376;28;19924;-55
2022/06/18 13:33:32;;;;;;;;;;;26.30;96.80;;;;;;5045457;28;19909;-55
2022/06/18 13:36:14;;;;;;;;;;;26.30;96.80;;;;;;5045193;28;19945;-52
2022/06/18 13:38:52;;;;;;;;;;;26.30;96.80;;;;;;5045306;28;19905;-52
2022/06/18 13:41:33;;;;;;;;;;;26.30;96.80;;;;;;5045452;28;19920;-57
2022/06/18 13:44:17;;;;;;;;;;;26.30;96.80;;;;;;5045274;28;19913;-52
2022/06/18 13:46:50;;;;;;;;;;;26.30;96.80;;;;;;5045450;28;19980;-52
2022/06/18 13:49:22;;;;;;;;;;;26.30;96.90;;;;;;5045088;28;19909;-55
2022/06/18 13:51:56;;;;;;;;;;;26.30;96.90;;;;;;5045713;28;19917;-54
2022/06/18 13:54:22;;;;;;;;;;;26.30;96.90;;;;;;5043326;28;20174;-53
2022/06/18 13:56:57;;;;;;;;;;;26.30;96.90;;;;;;5045502;28;20078;-53
2022/06/18 13:59:24;;;;;;;;;;;26.30;97.00;;;;;;5045107;28;19924;-57
2022/06/18 14:01:57;;;;;;;;;;;26.30;97.00;;;;;;5045320;28;19917;-56
2022/06/18 14:04:24;;;;;;;;;;;26.30;97.00;;;;;;5043576;28;20271;-52
2022/06/18 14:06:52;;;;;;;;;;;26.30;97.00;;;;;;5045148;28;20108;-53
2022/06/18 14:09:19;;;;;;;;;;;26.40;96.90;;;;;;5044771;28;19933;-54
2022/06/18 14:11:49;;;;;;;;;;;26.40;96.90;;;;;;5045110;28;19917;-53
2022/06/18 14:14:38;;;;;;;;;;;26.40;97.00;;;;;;5043597;28;20123;-57
2022/06/18 14:17:06;;;;;;;;;;;26.40;97.00;;;;;;5041519;28;19920;-53
2022/06/18 14:19:43;;;;;;;;;;;26.40;96.90;;;;;;5044374;28;19905;-53
2022/06/18 14:22:21;;;;;;;;;;;26.40;96.50;;;;;;5044947;28;19951;-51
2022/06/18 14:24:49;;;;;;;;;;;26.40;96.30;;;;;;5044185;28;19946;-51
2022/06/18 14:27:19;;;;;;;;;;;26.40;96.30;;;;;;5041812;28;19914;-52
2022/06/18 14:29:45;;;;;;;;;;;26.40;96.30;;;;;;5044339;28;20233;-51
2022/06/18 14:32:20;;;;;;;;;;;26.40;96.10;;;;;;5045047;28;20185;-52
2022/06/18 14:35:13;;;;;;;;;;;26.40;96.10;;;;;;5057814;28;20135;-52
2022/06/18 14:37:42;;;;;;;;;;;26.40;96.00;;;;;;5028946;28;19917;-53
2022/06/18 14:40:11;;;;;;;;;;;26.40;96.00;;;;;;5044008;28;20100;-53
2022/06/18 14:42:43;;;;;;;;;;;26.40;96.00;;;;;;5043862;28;19912;-53
2022/06/18 14:45:12;;;;;;;;;;;26.40;96.00;;;;;;5044155;28;19905;-52